Terminal Aerodrome Forecast
Issued by NWS Chicago, IL

Home | Current Version | Previous Version | Text Only | Print | Product List | Glossary Off
Versions: 1 2 3 4 5 6 7 8 9 10 11 12 13 14 15 16 17 18 19 20 21 22 23 24 25 26 27 28 29 30 31

000
FTUS43 KLOT 191736
TAFRFD
TAF
KRFD 191736Z 1918/2018 12007KT 1SM -SHRA BR OVC005
      TEMPO 1918/1921 1/2SM -DZ FG OVC003
     FM192300 19011G18KT 1 1/2SM -RA BR OVC004 WS020/22050KT
     FM200400 VRB06KT 1SM SHRA BR VCTS OVC005CB
      TEMPO 2006/2010 3/4SM TSRA OVC003CB
     FM201100 18007KT 1 1/2SM SHRA SCT003 OVC005=

USA.gov is the U.S. government's official web portal to all federal, state and local government web resources and services.